createdAt,value
2023-04-12T00:00:11.628Z,6.60
2023-04-12T00:02:39.436Z,6.40
2023-04-12T00:05:06.692Z,6.40
2023-04-12T00:07:33.810Z,6.40
2023-04-12T00:10:00.663Z,6.40
2023-04-12T00:12:27.744Z,6.40
2023-04-12T00:14:54.545Z,6.30
2023-04-12T00:17:21.373Z,6.40
2023-04-12T00:19:50.146Z,6.40
2023-04-12T00:22:17.118Z,6.40
2023-04-12T00:24:43.984Z,6.50
2023-04-12T00:27:10.846Z,6.50
2023-04-12T00:29:37.626Z,6.50
2023-04-12T00:32:06.017Z,6.50
2023-04-12T00:34:33.084Z,6.60
2023-04-12T00:37:00.502Z,6.60
2023-04-12T00:39:27.511Z,6.60
2023-04-12T00:41:54.360Z,6.60
2023-04-12T00:44:21.170Z,6.60
2023-04-12T00:46:48.153Z,6.60
2023-04-12T00:49:15.660Z,6.60
2023-04-12T00:51:42.543Z,6.70
2023-04-12T00:54:09.475Z,6.70
2023-04-12T00:56:36.976Z,6.70
2023-04-12T00:59:03.902Z,6.80
2023-04-12T01:01:32.116Z,6.80
2023-04-12T01:04:01.577Z,6.90
2023-04-12T01:06:44.810Z,6.90
2023-04-12T01:09:17.894Z,7.00
2023-04-12T01:11:48.134Z,7.10
2023-04-12T01:14:19.281Z,7.20
2023-04-12T01:16:51.245Z,7.20
2023-04-12T01:19:18.029Z,7.20
2023-04-12T01:22:03.264Z,7.30
2023-04-12T01:24:33.058Z,7.20
2023-04-12T01:27:01.800Z,7.20
2023-04-12T01:29:29.242Z,7.20
2023-04-12T01:32:00.866Z,7.10
2023-04-12T01:34:29.001Z,7.00
2023-04-12T01:36:57.353Z,7.00
2023-04-12T01:39:24.311Z,7.00
2023-04-12T01:41:51.073Z,6.90
2023-04-12T01:44:18.372Z,6.90
2023-04-12T01:46:47.606Z,6.90
2023-04-12T01:49:15.680Z,6.90
2023-04-12T01:51:48.417Z,6.90
2023-04-12T01:54:19.333Z,6.80
2023-04-12T01:56:47.310Z,6.80
2023-04-12T01:59:15.618Z,6.70
2023-04-12T02:01:43.176Z,6.60
2023-04-12T02:04:10.811Z,6.60
2023-04-12T02:06:38.115Z,6.50
2023-04-12T02:09:06.412Z,6.50
2023-04-12T02:11:33.293Z,6.50
2023-04-12T02:14:00.173Z,6.50
2023-04-12T02:16:29.319Z,6.50
2023-04-12T02:18:57.483Z,6.40
2023-04-12T02:21:24.518Z,6.30
2023-04-12T02:23:51.330Z,6.40
2023-04-12T02:26:18.149Z,6.30
2023-04-12T02:28:44.924Z,6.30
2023-04-12T02:31:12.178Z,6.30
2023-04-12T02:33:41.229Z,6.20
2023-04-12T02:36:10.261Z,6.20
2023-04-12T02:38:37.037Z,6.10
2023-04-12T02:41:03.809Z,6.00
2023-04-12T02:43:30.623Z,6.00
2023-04-12T02:45:57.399Z,5.90
2023-04-12T02:48:24.158Z,5.90
2023-04-12T02:50:50.926Z,5.90
2023-04-12T02:53:17.767Z,5.90
2023-04-12T02:55:45.028Z,5.90
2023-04-12T02:58:12.938Z,5.90
2023-04-12T03:00:39.679Z,5.90
2023-04-12T03:03:06.702Z,5.90
2023-04-12T03:05:33.622Z,5.90
2023-04-12T03:08:00.573Z,5.90
2023-04-12T03:10:27.382Z,5.80
2023-04-12T03:12:54.164Z,5.80
2023-04-12T03:15:23.548Z,5.80
2023-04-12T03:17:50.470Z,5.80
2023-04-12T03:20:17.312Z,5.80
2023-04-12T03:22:44.107Z,5.80
2023-04-12T03:25:12.722Z,5.80
2023-04-12T03:27:39.589Z,5.80
2023-04-12T03:30:06.872Z,5.80
2023-04-12T03:32:33.719Z,5.80
2023-04-12T03:35:00.869Z,5.80
2023-04-12T03:37:27.664Z,5.80
2023-04-12T03:39:54.426Z,5.70
2023-04-12T03:42:32.354Z,5.70
2023-04-12T03:45:00.143Z,5.70
2023-04-12T03:47:27.053Z,5.70
2023-04-12T03:52:31.728Z,5.70
2023-04-12T03:54:58.464Z,5.70
2023-04-12T03:57:25.292Z,5.70
2023-04-12T03:59:52.239Z,5.70
2023-04-12T04:02:19.250Z,5.60
2023-04-12T04:04:46.180Z,5.40
2023-04-12T04:07:13.008Z,5.40
2023-04-12T04:09:39.758Z,5.30
2023-04-12T04:12:06.559Z,5.20
2023-04-12T04:14:35.128Z,5.00
2023-04-12T04:17:01.973Z,4.70
2023-04-12T04:19:28.799Z,4.60
2023-04-12T04:21:56.419Z,4.50
2023-04-12T04:24:25.186Z,4.40
2023-04-12T04:26:54.439Z,4.40
2023-04-12T04:29:21.445Z,4.30
2023-04-12T04:31:48.747Z,4.30
2023-04-12T04:34:16.394Z,4.30
2023-04-12T04:36:43.808Z,4.30
2023-04-12T04:39:10.638Z,4.20
2023-04-12T04:41:40.505Z,4.20
2023-04-12T04:44:10.466Z,4.30
2023-04-12T04:46:38.188Z,4.30
2023-04-12T04:49:05.471Z,4.40
2023-04-12T04:51:32.402Z,4.30
2023-04-12T04:53:59.409Z,4.40
2023-04-12T04:56:26.444Z,4.40
2023-04-12T04:58:55.429Z,4.40
2023-04-12T05:01:28.770Z,4.40
2023-04-12T05:03:56.297Z,4.50
2023-04-12T05:06:23.380Z,4.50
2023-04-12T05:08:50.242Z,4.60
2023-04-12T05:11:17.131Z,4.70
2023-04-12T05:13:44.086Z,4.70
2023-04-12T05:16:11.487Z,4.80
2023-04-12T05:18:38.670Z,4.80
2023-04-12T05:21:05.665Z,4.90
2023-04-12T05:23:36.933Z,4.90
2023-04-12T05:26:04.037Z,4.90
2023-04-12T05:28:30.934Z,4.90
2023-04-12T05:30:57.705Z,4.90
2023-04-12T05:33:24.469Z,4.90
2023-04-12T05:35:51.263Z,5.00
2023-04-12T05:38:18.160Z,4.90
2023-04-12T05:40:44.957Z,4.90
2023-04-12T05:43:13.073Z,5.00
2023-04-12T05:45:40.524Z,4.90
2023-04-12T05:48:07.877Z,4.90
2023-04-12T05:50:34.754Z,4.90
2023-04-12T05:53:01.802Z,4.90
2023-04-12T05:55:29.097Z,5.00
2023-04-12T05:57:55.835Z,5.00
2023-04-12T06:00:23.543Z,5.00
2023-04-12T06:02:50.782Z,5.00
2023-04-12T06:05:18.173Z,5.00
2023-04-12T06:07:47.089Z,5.00
2023-04-12T06:10:17.208Z,5.00
2023-04-12T06:12:44.668Z,5.10
2023-04-12T06:15:11.585Z,5.10
2023-04-12T06:17:38.655Z,5.10
2023-04-12T06:20:09.711Z,5.10
2023-04-12T06:22:36.971Z,5.10
2023-04-12T06:25:04.126Z,5.10
2023-04-12T06:27:31.396Z,5.10
2023-04-12T06:29:58.297Z,5.10
2023-04-12T06:32:25.603Z,5.10
2023-04-12T06:34:52.602Z,5.20
2023-04-12T06:37:19.464Z,5.40
2023-04-12T06:44:41.833Z,5.50
2023-04-12T06:47:09.405Z,5.50
2023-04-12T06:49:36.503Z,5.60
2023-04-12T06:52:03.392Z,5.60
2023-04-12T06:56:57.717Z,5.60
2023-04-12T06:59:24.591Z,5.60
2023-04-12T07:01:51.758Z,5.50
2023-04-12T07:04:18.695Z,5.50
2023-04-12T07:06:45.643Z,5.60
2023-04-12T07:09:12.510Z,5.60
2023-04-12T07:11:39.376Z,5.70
2023-04-12T07:14:06.255Z,5.70
2023-04-12T07:16:33.229Z,5.70
2023-04-12T07:19:00.824Z,5.70
2023-04-12T07:21:28.300Z,5.80
2023-04-12T07:23:56.020Z,5.80
2023-04-12T07:26:23.187Z,5.80
2023-04-12T07:28:50.067Z,5.80
2023-04-12T07:31:17.136Z,5.90
2023-04-12T07:33:44.306Z,5.90
2023-04-12T07:36:11.806Z,5.80
2023-04-12T07:38:38.687Z,5.80
2023-04-12T07:41:05.578Z,5.90
2023-04-12T07:43:32.397Z,5.90
2023-04-12T07:45:59.488Z,5.90
2023-04-12T07:48:26.420Z,5.90
2023-04-12T07:50:53.216Z,6.00
2023-04-12T07:53:21.679Z,5.90
2023-04-12T07:55:48.632Z,5.90
2023-04-12T07:58:16.270Z,5.90
2023-04-12T08:00:43.735Z,5.90
2023-04-12T08:03:12.008Z,5.90
2023-04-12T08:05:38.911Z,5.90
2023-04-12T08:08:06.364Z,5.90
2023-04-12T08:10:33.131Z,5.80
2023-04-12T08:12:59.872Z,5.90
2023-04-12T08:15:26.664Z,5.90
2023-04-12T08:17:53.491Z,6.00
2023-04-12T08:20:20.383Z,5.90
2023-04-12T08:22:47.363Z,5.90
2023-04-12T08:25:14.111Z,5.90
2023-04-12T08:27:44.229Z,5.90
2023-04-12T08:30:11.895Z,5.90
2023-04-12T08:32:39.054Z,5.90
2023-04-12T08:35:06.484Z,6.00
2023-04-12T08:37:33.739Z,6.00
2023-04-12T08:40:02.496Z,6.00
2023-04-12T08:42:29.282Z,6.00
2023-04-12T08:44:56.109Z,6.10
2023-04-12T08:47:22.970Z,6.10
2023-04-12T08:49:49.837Z,6.10
2023-04-12T08:52:17.250Z,6.10
2023-04-12T08:54:43.973Z,6.10
2023-04-12T08:57:10.870Z,6.00
2023-04-12T08:59:39.031Z,6.10
2023-04-12T09:02:05.932Z,6.00
2023-04-12T09:04:32.820Z,6.00
2023-04-12T09:06:59.780Z,6.00
2023-04-12T09:09:46.015Z,6.00
2023-04-12T09:12:13.564Z,6.10
2023-04-12T09:14:40.923Z,6.00
2023-04-12T09:17:24.164Z,6.10
2023-04-12T09:19:51.092Z,6.10
2023-04-12T09:22:17.902Z,6.20
2023-04-12T09:24:50.186Z,6.30
2023-04-12T09:27:21.217Z,6.30
2023-04-12T09:29:51.574Z,6.30
2023-04-12T09:32:27.771Z,6.30
2023-04-12T09:34:56.150Z,6.50
2023-04-12T09:37:22.920Z,6.50
2023-04-12T09:39:58.978Z,6.70
2023-04-12T09:42:33.855Z,6.80
2023-04-12T09:45:03.217Z,6.90
2023-04-12T09:47:40.226Z,7.00
2023-04-12T09:50:08.163Z,7.00
2023-04-12T09:52:38.516Z,7.10
2023-04-12T09:55:09.872Z,7.10
2023-04-12T09:57:39.926Z,7.10
2023-04-12T10:00:12.658Z,7.10
2023-04-12T10:02:41.764Z,7.30
2023-04-12T10:05:10.779Z,7.30
2023-04-12T10:07:39.649Z,7.50
2023-04-12T10:10:07.526Z,7.40
2023-04-12T10:12:36.138Z,7.40
2023-04-12T10:15:13.147Z,7.40
2023-04-12T10:17:41.917Z,7.30
2023-04-12T10:20:10.153Z,7.30
2023-04-12T10:22:39.236Z,7.30
2023-04-12T10:25:09.711Z,7.40
2023-04-12T10:27:36.492Z,7.60
2023-04-12T10:30:19.267Z,7.70
2023-04-12T10:32:46.653Z,7.70
2023-04-12T10:35:13.524Z,7.60
2023-04-12T10:38:00.060Z,7.60
2023-04-12T10:40:27.233Z,7.60
2023-04-12T10:43:12.664Z,7.60
2023-04-12T10:45:39.532Z,7.70
2023-04-12T10:48:06.811Z,7.60
2023-04-12T10:50:35.323Z,7.60
2023-04-12T10:53:15.518Z,7.70
2023-04-12T10:55:42.965Z,7.70
2023-04-12T10:58:09.806Z,7.80
2023-04-12T11:00:55.419Z,7.70
2023-04-12T11:03:22.653Z,7.80
2023-04-12T11:06:09.310Z,7.90
2023-04-12T11:08:46.750Z,7.80
2023-04-12T11:11:21.092Z,8.00
2023-04-12T11:13:47.949Z,8.30
2023-04-12T11:16:14.821Z,8.70
2023-04-12T11:18:41.888Z,9.00
2023-04-12T11:21:10.123Z,9.00
2023-04-12T11:23:37.831Z,8.60
2023-04-12T11:26:04.790Z,8.50
2023-04-12T11:28:33.873Z,8.40
2023-04-12T11:31:03.235Z,8.10
2023-04-12T11:33:32.797Z,7.90
2023-04-12T11:35:59.618Z,7.90
2023-04-12T11:38:26.514Z,8.00
2023-04-12T11:40:53.316Z,7.80
2023-04-12T11:43:20.615Z,7.90
2023-04-12T11:45:47.769Z,7.80
2023-04-12T11:48:14.634Z,7.80
2023-04-12T11:50:41.758Z,7.80
2023-04-12T11:53:16.016Z,7.80
2023-04-12T11:55:47.537Z,7.80
2023-04-12T11:58:14.270Z,8.00
2023-04-12T12:00:45.662Z,8.40
2023-04-12T12:03:12.871Z,8.60
2023-04-12T12:05:41.155Z,9.00
2023-04-12T12:08:09.076Z,9.20
2023-04-12T12:10:46.219Z,9.70
2023-04-12T12:13:18.965Z,10.00
2023-04-12T12:15:46.292Z,10.50
2023-04-12T12:18:13.266Z,10.60
2023-04-12T12:20:42.063Z,10.50
2023-04-12T12:23:09.062Z,10.70
2023-04-12T12:25:35.918Z,10.60
2023-04-12T12:28:05.490Z,10.60
2023-04-12T12:33:00.323Z,10.80
2023-04-12T12:35:27.668Z,10.70
2023-04-12T12:37:58.840Z,10.50
2023-04-12T12:40:31.528Z,10.20
2023-04-12T12:42:58.516Z,10.30
2023-04-12T12:45:26.295Z,10.00
2023-04-12T12:47:53.242Z,10.20
2023-04-12T12:50:25.131Z,10.20
2023-04-12T12:52:52.690Z,10.50
2023-04-12T12:55:19.599Z,10.50
2023-04-12T12:57:55.465Z,10.80
2023-04-12T13:00:32.564Z,10.10
2023-04-12T13:02:59.649Z,9.80
2023-04-12T13:05:26.805Z,9.70
2023-04-12T13:07:53.610Z,9.40
2023-04-12T13:10:20.591Z,9.30
2023-04-12T13:12:47.382Z,9.10
2023-04-12T13:17:44.013Z,9.20
2023-04-12T13:20:10.987Z,9.80
2023-04-12T13:22:37.806Z,9.70
2023-04-12T13:25:04.808Z,10.10
2023-04-12T13:27:31.811Z,10.20
2023-04-12T13:29:58.732Z,10.40
2023-04-12T13:32:25.986Z,10.20
2023-04-12T13:34:52.968Z,10.30
2023-04-12T13:37:19.722Z,10.20
2023-04-12T13:39:46.813Z,9.60
2023-04-12T13:42:13.563Z,9.40
2023-04-12T13:44:40.801Z,9.20
2023-04-12T13:47:08.220Z,9.00
2023-04-12T13:49:34.982Z,9.10
2023-04-12T13:52:02.319Z,9.00
2023-04-12T13:54:30.630Z,8.70
2023-04-12T13:56:58.241Z,8.60
2023-04-12T13:59:26.301Z,8.70
2023-04-12T14:01:53.219Z,8.60
2023-04-12T14:04:20.442Z,8.70
2023-04-12T14:06:47.249Z,8.90
2023-04-12T14:09:24.452Z,8.70
2023-04-12T14:11:51.659Z,8.70
2023-04-12T14:14:18.483Z,8.60
2023-04-12T14:16:46.746Z,8.80
2023-04-12T14:19:13.662Z,8.80
2023-04-12T14:21:40.420Z,8.80
2023-04-12T14:24:07.228Z,8.80
2023-04-12T14:26:34.112Z,8.90
2023-04-12T14:29:00.885Z,8.80
2023-04-12T14:31:27.864Z,8.70
2023-04-12T14:33:54.663Z,8.80
2023-04-12T14:36:21.441Z,9.00
2023-04-12T14:38:49.567Z,9.10
2023-04-12T14:41:17.092Z,9.10
2023-04-12T14:43:44.141Z,8.90
2023-04-12T14:46:10.965Z,8.90
2023-04-12T14:48:37.829Z,8.80
2023-04-12T14:51:04.671Z,8.70
2023-04-12T14:53:32.251Z,8.60
2023-04-12T14:56:00.626Z,8.50
2023-04-12T14:58:29.593Z,8.40
2023-04-12T15:01:00.970Z,8.50
2023-04-12T15:03:30.594Z,8.60
2023-04-12T15:05:59.199Z,8.60
2023-04-12T15:08:26.128Z,8.70
2023-04-12T15:10:53.086Z,8.70
2023-04-12T15:13:21.723Z,8.70
2023-04-12T15:15:50.525Z,8.50
2023-04-12T15:18:17.359Z,8.50
2023-04-12T15:20:44.165Z,8.60
2023-04-12T15:23:12.332Z,8.50
2023-04-12T15:25:39.153Z,8.40
2023-04-12T15:28:05.868Z,8.40
2023-04-12T15:30:32.587Z,8.40
2023-04-12T15:32:59.793Z,8.40
2023-04-12T15:35:27.415Z,8.40
2023-04-12T15:37:55.145Z,8.30
2023-04-12T15:40:22.990Z,8.20
2023-04-12T15:42:49.860Z,8.20
2023-04-12T15:45:17.102Z,8.30
2023-04-12T15:47:45.924Z,8.20
2023-04-12T15:50:13.196Z,8.30
2023-04-12T15:52:43.054Z,8.30
2023-04-12T15:55:12.016Z,8.30
2023-04-12T15:57:38.828Z,8.40
2023-04-12T16:00:20.942Z,8.40
2023-04-12T16:02:53.686Z,8.40
2023-04-12T16:05:21.170Z,8.50
2023-04-12T16:07:51.193Z,8.40
2023-04-12T16:10:21.671Z,8.40
2023-04-12T16:12:50.372Z,8.30
2023-04-12T16:15:20.158Z,8.20
2023-04-12T16:17:48.510Z,8.20
2023-04-12T16:20:18.000Z,8.20
2023-04-12T16:22:46.078Z,8.20
2023-04-12T16:25:13.710Z,8.20
2023-04-12T16:27:42.100Z,8.20
2023-04-12T16:30:11.404Z,8.20
2023-04-12T16:32:40.934Z,8.10
2023-04-12T16:35:09.097Z,8.10
2023-04-12T16:37:38.174Z,8.00
2023-04-12T16:40:10.426Z,8.00
2023-04-12T16:42:38.089Z,8.00
2023-04-12T16:45:05.962Z,8.10
2023-04-12T16:47:33.530Z,8.10
2023-04-12T16:50:00.621Z,8.10
2023-04-12T16:52:27.465Z,8.10
2023-04-12T16:54:54.248Z,8.00
2023-04-12T16:57:21.718Z,8.00
2023-04-12T16:59:49.021Z,8.10
2023-04-12T17:02:17.502Z,8.00
2023-04-12T17:04:44.461Z,7.90
2023-04-12T17:07:11.324Z,7.90
2023-04-12T17:09:38.117Z,7.80
2023-04-12T17:12:05.067Z,7.90
2023-04-12T17:14:32.609Z,7.80
2023-04-12T17:16:59.373Z,7.80
2023-04-12T17:19:27.457Z,7.80
2023-04-12T17:21:55.626Z,7.90
2023-04-12T17:24:24.117Z,7.80
2023-04-12T17:26:52.306Z,7.70
2023-04-12T17:29:20.510Z,7.70
2023-04-12T17:31:51.955Z,7.70
2023-04-12T17:34:22.292Z,7.60
2023-04-12T17:36:49.389Z,7.60
2023-04-12T17:39:17.344Z,7.60
2023-04-12T17:41:45.273Z,7.60
2023-04-12T17:44:12.951Z,7.60
2023-04-12T17:46:42.105Z,7.60
2023-04-12T17:49:09.887Z,7.50
2023-04-12T17:51:37.052Z,7.50
2023-04-12T17:54:04.195Z,7.50
2023-04-12T17:56:32.007Z,7.40
2023-04-12T17:58:59.523Z,7.50
2023-04-12T18:01:26.640Z,7.50
2023-04-12T18:03:53.743Z,7.40
2023-04-12T18:06:21.294Z,7.50
2023-04-12T18:08:48.573Z,7.50
2023-04-12T18:11:15.406Z,7.50
2023-04-12T18:13:42.628Z,7.50
2023-04-12T18:16:09.503Z,7.50
2023-04-12T18:18:37.130Z,7.50
2023-04-12T18:21:04.939Z,7.50
2023-04-12T18:23:31.859Z,7.50
2023-04-12T18:25:58.645Z,7.50
2023-04-12T18:28:25.684Z,7.50
2023-04-12T18:30:53.035Z,7.50
2023-04-12T18:33:21.017Z,7.50
2023-04-12T18:35:47.838Z,7.40
2023-04-12T18:38:14.614Z,7.40
2023-04-12T18:40:41.736Z,7.40
2023-04-12T18:43:08.537Z,7.30
2023-04-12T18:45:38.465Z,7.30
2023-04-12T18:48:05.430Z,7.30
2023-04-12T18:50:32.319Z,7.30
2023-04-12T18:52:59.322Z,7.30
2023-04-12T18:55:26.272Z,7.30
2023-04-12T18:57:53.233Z,7.30
2023-04-12T19:00:21.504Z,7.20
2023-04-12T19:02:48.513Z,7.20
2023-04-12T19:05:15.455Z,7.20
2023-04-12T19:07:42.253Z,7.10
2023-04-12T19:10:09.331Z,7.20
2023-04-12T19:12:36.136Z,7.10
2023-04-12T19:15:03.136Z,7.20
2023-04-12T19:17:30.512Z,7.20
2023-04-12T19:19:57.701Z,7.20
2023-04-12T19:22:27.536Z,7.20
2023-04-12T19:24:55.228Z,7.20
2023-04-12T19:27:23.090Z,7.30
2023-04-12T19:29:51.563Z,7.30
2023-04-12T19:32:19.228Z,7.30
2023-04-12T19:34:47.142Z,7.30
2023-04-12T19:37:14.845Z,7.20
2023-04-12T19:39:42.064Z,7.30
2023-04-12T19:42:09.825Z,7.30
2023-04-12T19:44:38.306Z,7.30
2023-04-12T19:47:07.258Z,7.20
2023-04-12T19:49:34.670Z,7.20
2023-04-12T19:52:03.357Z,7.10
2023-04-12T19:54:30.423Z,6.90
2023-04-12T19:56:57.346Z,6.90
2023-04-12T19:59:27.073Z,6.80
2023-04-12T20:01:54.945Z,6.50
2023-04-12T20:04:22.280Z,6.20
2023-04-12T20:06:50.142Z,6.00
2023-04-12T20:09:17.377Z,5.80
2023-04-12T20:11:44.713Z,5.70
2023-04-12T20:14:11.849Z,5.60
2023-04-12T20:16:41.688Z,5.50
2023-04-12T20:19:08.732Z,5.40
2023-04-12T20:21:35.671Z,5.40
2023-04-12T20:24:02.925Z,5.30
2023-04-12T20:26:34.025Z,5.30
2023-04-12T20:29:01.404Z,5.20
2023-04-12T20:31:28.741Z,5.10
2023-04-12T20:33:57.148Z,5.10
2023-04-12T20:36:26.446Z,5.00
2023-04-12T20:38:54.268Z,4.90
2023-04-12T20:41:21.773Z,4.90
2023-04-12T20:43:49.500Z,5.00
2023-04-12T20:46:19.750Z,5.00
2023-04-12T20:48:47.576Z,5.00
2023-04-12T20:51:15.340Z,5.00
2023-04-12T20:53:48.625Z,5.00
2023-04-12T20:56:17.150Z,5.00
2023-04-12T20:58:44.820Z,5.10
2023-04-12T21:01:15.231Z,5.10
2023-04-12T21:03:42.533Z,5.10
2023-04-12T21:06:09.962Z,5.10
2023-04-12T21:08:36.803Z,4.90
2023-04-12T21:11:03.806Z,4.80
2023-04-12T21:13:30.928Z,4.80
2023-04-12T21:15:58.885Z,4.80
2023-04-12T21:18:25.773Z,4.80
2023-04-12T21:20:53.318Z,4.90
2023-04-12T21:23:20.266Z,4.90
2023-04-12T21:25:50.961Z,4.90
2023-04-12T21:28:18.223Z,4.90
2023-04-12T21:30:46.389Z,4.90
2023-04-12T21:33:13.753Z,4.90
2023-04-12T21:35:40.507Z,4.80
2023-04-12T21:38:07.605Z,4.80
2023-04-12T21:40:34.365Z,4.80
2023-04-12T21:43:01.600Z,4.90
2023-04-12T21:45:28.467Z,5.00
2023-04-12T21:47:55.334Z,5.10
2023-04-12T21:50:22.350Z,5.20
2023-04-12T21:52:49.087Z,5.40
2023-04-12T21:55:16.106Z,5.60
2023-04-12T21:57:42.927Z,5.70
2023-04-12T22:00:10.107Z,5.80
2023-04-12T22:05:04.476Z,6.20
2023-04-12T22:07:31.252Z,6.40
2023-04-12T22:09:58.765Z,6.50
2023-04-12T22:12:25.848Z,6.60
2023-04-12T22:14:52.878Z,6.70
2023-04-12T22:17:20.519Z,6.70
2023-04-12T22:19:47.365Z,6.80
2023-04-12T22:22:16.821Z,6.80
2023-04-12T22:24:44.181Z,6.80
2023-04-12T22:27:10.944Z,6.90
2023-04-12T22:29:38.023Z,6.90
2023-04-12T22:32:04.973Z,6.90
2023-04-12T22:34:32.554Z,7.00
2023-04-12T22:36:59.367Z,7.00
2023-04-12T22:39:26.649Z,6.90
2023-04-12T22:41:53.544Z,7.00
2023-04-12T22:44:23.347Z,7.00
2023-04-12T22:46:50.939Z,7.10
2023-04-12T22:49:18.543Z,7.10
2023-04-12T22:51:45.535Z,7.10
2023-04-12T22:54:12.533Z,7.10
2023-04-12T22:56:45.330Z,7.10
2023-04-12T22:59:14.323Z,7.10
2023-04-12T23:01:41.857Z,7.10
2023-04-12T23:04:12.468Z,7.20
2023-04-12T23:06:42.609Z,7.10
2023-04-12T23:09:10.175Z,7.10
2023-04-12T23:11:38.375Z,7.10
2023-04-12T23:14:05.751Z,7.10
2023-04-12T23:16:34.003Z,7.10
2023-04-12T23:19:01.707Z,7.10
2023-04-12T23:21:28.633Z,7.10
2023-04-12T23:23:57.019Z,7.10
2023-04-12T23:26:24.730Z,7.20
2023-04-12T23:28:52.214Z,7.20
2023-04-12T23:31:19.384Z,7.10
2023-04-12T23:33:46.217Z,7.10
2023-04-12T23:36:13.312Z,7.10
2023-04-12T23:38:40.767Z,7.10
2023-04-12T23:41:10.151Z,7.10
2023-04-12T23:43:37.288Z,7.10
2023-04-12T23:46:04.729Z,7.10
2023-04-12T23:48:32.345Z,7.00
2023-04-12T23:50:59.964Z,7.00
2023-04-12T23:53:26.712Z,7.10
2023-04-12T23:55:53.677Z,7.00
2023-04-12T23:58:21.567Z,7.00
